createdAt,value
2018-09-20T00:01:33.455Z,100511.00
2018-09-20T00:06:36.480Z,100508.00
2018-09-20T00:11:39.670Z,100504.00
2018-09-20T00:16:42.639Z,100511.00
2018-09-20T00:21:45.617Z,100511.00
2018-09-20T00:26:48.727Z,100507.00
2018-09-20T00:31:51.860Z,100503.00
2018-09-20T00:36:54.835Z,100495.00
2018-09-20T00:41:57.911Z,100493.00
2018-09-20T00:47:02.580Z,100489.00
2018-09-20T00:52:05.775Z,100491.00
2018-09-20T00:57:09.844Z,100492.00
2018-09-20T01:02:13.214Z,100500.00
2018-09-20T01:07:16.384Z,100487.00
2018-09-20T01:12:19.348Z,100489.00
2018-09-20T01:17:22.309Z,100492.00
2018-09-20T01:22:25.283Z,100493.00
2018-09-20T01:27:28.258Z,100491.00
2018-09-20T01:32:31.502Z,100496.00
2018-09-20T01:37:34.460Z,100503.00
2018-09-20T01:42:37.419Z,100493.00
2018-09-20T01:47:40.386Z,100497.00
2018-09-20T01:52:43.335Z,100492.00
2018-09-20T01:57:46.328Z,100488.00
2018-09-20T02:02:49.339Z,100486.00
2018-09-20T02:07:52.313Z,100490.00
2018-09-20T02:12:55.444Z,100486.00
2018-09-20T02:17:58.655Z,100492.00
2018-09-20T02:23:04.285Z,100489.00
2018-09-20T02:28:07.289Z,100505.00
2018-09-20T02:33:10.439Z,100495.00
2018-09-20T02:38:13.483Z,100498.00
2018-09-20T02:43:16.445Z,100497.00
2018-09-20T02:48:19.423Z,100508.00
2018-09-20T02:53:22.355Z,100516.00
2018-09-20T02:58:25.333Z,100512.00
2018-09-20T03:03:28.323Z,100507.00
2018-09-20T03:08:31.324Z,100501.00
2018-09-20T03:13:34.353Z,100509.00
2018-09-20T03:18:37.342Z,100513.00
2018-09-20T03:23:40.312Z,100518.00
2018-09-20T03:28:43.330Z,100517.00
2018-09-20T03:33:47.022Z,100523.00
2018-09-20T03:38:50.056Z,100528.00
2018-09-20T03:43:53.220Z,100529.00
2018-09-20T03:48:56.205Z,100525.00
2018-09-20T03:53:59.248Z,100527.00
2018-09-20T03:59:04.276Z,100527.00
2018-09-20T04:04:07.421Z,100527.00
2018-09-20T04:09:11.616Z,100523.00
2018-09-20T04:14:14.666Z,100526.00
2018-09-20T04:19:17.708Z,100535.00
2018-09-20T04:24:20.757Z,100531.00
2018-09-20T04:29:23.882Z,100532.00
2018-09-20T04:34:27.279Z,100528.00
2018-09-20T04:39:30.291Z,100531.00
2018-09-20T04:44:33.287Z,100535.00
2018-09-20T04:49:36.364Z,100529.00
2018-09-20T04:54:39.583Z,100535.00
2018-09-20T04:59:42.594Z,100526.00
2018-09-20T05:04:45.842Z,100536.00
2018-09-20T05:09:49.020Z,100542.00
2018-09-20T05:14:52.027Z,100541.00
2018-09-20T05:19:55.108Z,100532.00
2018-09-20T05:24:58.131Z,100540.00
2018-09-20T05:30:03.117Z,100556.00
2018-09-20T05:35:06.185Z,100551.00
2018-09-20T05:40:09.558Z,100557.00
2018-09-20T05:45:12.583Z,100553.00
2018-09-20T05:50:15.573Z,100550.00
2018-09-20T05:55:18.570Z,100550.00
2018-09-20T06:00:21.581Z,100545.00
2018-09-20T06:05:24.556Z,100554.00
2018-09-20T06:10:27.583Z,100558.00
2018-09-20T06:15:30.883Z,100573.00
2018-09-20T06:20:33.854Z,100575.00
2018-09-20T06:25:36.853Z,100578.00
2018-09-20T06:30:39.835Z,100587.00
2018-09-20T06:35:43.153Z,100592.00
2018-09-20T06:40:46.190Z,100592.00
2018-09-20T06:45:49.192Z,100581.00
2018-09-20T06:50:52.214Z,100597.00
2018-09-20T06:55:55.187Z,100605.00
2018-09-20T07:00:58.196Z,100598.00
2018-09-20T07:06:03.697Z,100616.00
2018-09-20T07:11:06.727Z,100610.00
2018-09-20T07:16:09.749Z,100632.00
2018-09-20T07:21:12.791Z,100635.00
2018-09-20T07:26:17.268Z,100621.00
2018-09-20T07:31:20.506Z,100622.00
2018-09-20T07:36:23.537Z,100631.00
2018-09-20T07:41:26.783Z,100619.00
2018-09-20T07:46:29.901Z,100628.00
2018-09-20T07:51:32.971Z,100626.00
2018-09-20T07:56:35.987Z,100621.00
2018-09-20T08:01:39.040Z,100621.00
2018-09-20T08:06:42.067Z,100617.00
2018-09-20T08:11:45.072Z,100623.00
2018-09-20T08:16:48.080Z,100635.00
2018-09-20T08:21:51.093Z,100620.00
2018-09-20T08:26:54.092Z,100626.00
2018-09-20T08:31:57.178Z,100628.00
2018-09-20T08:37:00.339Z,100630.00
2018-09-20T08:42:03.882Z,100633.00
2018-09-20T08:47:06.951Z,100649.00
2018-09-20T08:52:10.090Z,100630.00
2018-09-20T08:57:13.135Z,100623.00
2018-09-20T09:02:16.084Z,100626.00
2018-09-20T09:07:19.098Z,100626.00
2018-09-20T09:12:22.334Z,100628.00
2018-09-20T09:17:25.343Z,100627.00
2018-09-20T09:22:28.365Z,100623.00
2018-09-20T09:27:31.341Z,100606.00
2018-09-20T09:32:34.328Z,100594.00
2018-09-20T09:37:37.304Z,100588.00
2018-09-20T09:42:40.195Z,100580.00
2018-09-20T09:47:43.476Z,100577.00
2018-09-20T09:52:46.950Z,100566.00
2018-09-20T09:57:52.438Z,100564.00
2018-09-20T10:02:57.055Z,100568.00
2018-09-20T10:08:00.021Z,100565.00
2018-09-20T10:13:05.457Z,100545.00
2018-09-20T10:18:08.502Z,100548.00
2018-09-20T10:23:11.511Z,100537.00
2018-09-20T10:28:14.762Z,100542.00
2018-09-20T10:33:17.660Z,100531.00
2018-09-20T10:38:20.874Z,100526.00
2018-09-20T10:43:24.505Z,100523.00
2018-09-20T10:48:27.487Z,100518.00
2018-09-20T10:53:30.520Z,100517.00
2018-09-20T10:58:33.493Z,100524.00
2018-09-20T11:03:36.583Z,100512.00
2018-09-20T11:08:39.644Z,100504.00
2018-09-20T11:13:42.635Z,100499.00
2018-09-20T11:18:45.652Z,100494.00
2018-09-20T11:23:48.715Z,100489.00
2018-09-20T11:28:51.750Z,100491.00
2018-09-20T11:33:54.741Z,100481.00
2018-09-20T11:38:57.809Z,100472.00
2018-09-20T11:44:02.597Z,100472.00
2018-09-20T11:49:05.569Z,100465.00
2018-09-20T11:54:08.644Z,100474.00
2018-09-20T11:59:11.625Z,100455.00
2018-09-20T12:04:14.656Z,100468.00
2018-09-20T12:09:17.745Z,100451.00
2018-09-20T12:14:20.777Z,100422.00
2018-09-20T12:19:23.803Z,100432.00
2018-09-20T12:24:26.822Z,100426.00
2018-09-20T12:29:29.820Z,100421.00
2018-09-20T12:34:32.785Z,100423.00
2018-09-20T12:39:35.818Z,100408.00
2018-09-20T12:44:38.777Z,100413.00
2018-09-20T12:49:41.752Z,100417.00
2018-09-20T12:54:44.806Z,100399.00
2018-09-20T12:59:47.823Z,100406.00
2018-09-20T13:04:50.970Z,100393.00
2018-09-20T13:09:54.003Z,100391.00
2018-09-20T13:14:57.018Z,100387.00
2018-09-20T13:20:00.045Z,100381.00
2018-09-20T13:25:05.446Z,100376.00
2018-09-20T13:30:09.367Z,100369.00
2018-09-20T13:35:12.357Z,100375.00
2018-09-20T13:40:15.462Z,100364.00
2018-09-20T13:45:18.493Z,100364.00
2018-09-20T13:50:21.530Z,100359.00
2018-09-20T13:55:24.657Z,100362.00
2018-09-20T14:00:27.715Z,100351.00
2018-09-20T14:05:30.790Z,100342.00
2018-09-20T14:10:33.848Z,100343.00
2018-09-20T14:15:36.966Z,100337.00
2018-09-20T14:20:39.904Z,100322.00
2018-09-20T14:25:43.046Z,100333.00
2018-09-20T14:30:46.158Z,100316.00
2018-09-20T14:35:49.202Z,100314.00
2018-09-20T14:40:52.348Z,100316.00
2018-09-20T14:45:55.540Z,100304.00
2018-09-20T14:50:58.669Z,100289.00
2018-09-20T14:56:03.679Z,100281.00
2018-09-20T15:01:06.991Z,100272.00
2018-09-20T15:06:10.161Z,100274.00
2018-09-20T15:11:13.206Z,100277.00
2018-09-20T15:16:16.275Z,100275.00
2018-09-20T15:21:19.447Z,100268.00
2018-09-20T15:26:22.982Z,100255.00
2018-09-20T15:31:26.651Z,100249.00
2018-09-20T15:36:29.822Z,100246.00
2018-09-20T15:41:32.820Z,100247.00
2018-09-20T15:46:36.033Z,100241.00
2018-09-20T15:51:39.172Z,100240.00
2018-09-20T15:56:42.183Z,100242.00
2018-09-20T16:01:45.319Z,100239.00
2018-09-20T16:06:48.345Z,100232.00
2018-09-20T16:11:51.410Z,100221.00
2018-09-20T16:16:54.440Z,100212.00
2018-09-20T16:21:57.415Z,100204.00
2018-09-20T16:27:00.465Z,100190.00
2018-09-20T16:32:21.411Z,100187.00
2018-09-20T16:42:03.006Z,100187.00
2018-09-20T16:47:06.353Z,100167.00
2018-09-20T16:52:09.386Z,100156.00
2018-09-20T16:57:12.453Z,100148.00
2018-09-20T17:02:15.463Z,100150.00
2018-09-20T17:07:18.601Z,100156.00
2018-09-20T17:12:21.531Z,100147.00
2018-09-20T17:17:24.576Z,100143.00
2018-09-20T17:22:27.596Z,100133.00
2018-09-20T17:27:30.636Z,100144.00
2018-09-20T17:32:33.638Z,100133.00
2018-09-20T17:37:38.717Z,100130.00
2018-09-20T17:42:42.893Z,100131.00
2018-09-20T17:47:45.939Z,100120.00
2018-09-20T17:52:50.556Z,100130.00
2018-09-20T17:58:23.358Z,100125.00
2018-09-20T18:03:26.510Z,100116.00
2018-09-20T18:08:29.755Z,100111.00
2018-09-20T18:13:32.804Z,100115.00
2018-09-20T18:18:36.590Z,100116.00
2018-09-20T18:23:39.670Z,100104.00
2018-09-20T18:28:42.690Z,100107.00
2018-09-20T18:33:45.750Z,100095.00
2018-09-20T18:38:48.930Z,100091.00
2018-09-20T18:43:51.987Z,100084.00
2018-09-20T18:48:55.056Z,100094.00
2018-09-20T18:53:58.079Z,100092.00
2018-09-20T18:59:04.144Z,100088.00
2018-09-20T19:04:07.305Z,100084.00
2018-09-20T19:09:10.455Z,100069.00
2018-09-20T19:14:13.517Z,100065.00
2018-09-20T19:19:16.618Z,100052.00
2018-09-20T19:24:19.661Z,100057.00
2018-09-20T19:29:23.029Z,100050.00
2018-09-20T19:34:26.112Z,100046.00
2018-09-20T19:39:29.213Z,100026.00
2018-09-20T19:44:32.333Z,100028.00
2018-09-20T19:49:35.421Z,100029.00
2018-09-20T19:54:38.671Z,100015.00
2018-09-20T19:59:43.041Z,100011.00
2018-09-20T20:04:46.133Z,100009.00
2018-09-20T20:09:49.210Z,100011.00
2018-09-20T20:14:52.367Z,100012.00
2018-09-20T20:25:04.477Z,100014.00
2018-09-20T20:30:07.575Z,99995.00
2018-09-20T20:35:10.644Z,100001.00
2018-09-20T20:40:13.670Z,99997.00
2018-09-20T20:45:16.793Z,99993.00
2018-09-20T20:50:20.008Z,99992.00
2018-09-20T20:55:23.084Z,99987.00
2018-09-20T21:00:26.116Z,99982.00
2018-09-20T21:05:29.156Z,99980.00
2018-09-20T21:10:32.255Z,99973.00
2018-09-20T21:15:35.317Z,99968.00
2018-09-20T21:20:38.444Z,99980.00
2018-09-20T21:25:41.412Z,99969.00
2018-09-20T21:30:44.415Z,99966.00
2018-09-20T21:35:47.428Z,99961.00
2018-09-20T21:40:50.505Z,99959.00
2018-09-20T21:45:54.391Z,99944.00
2018-09-20T21:50:57.425Z,99944.00
2018-09-20T21:56:00.420Z,99933.00
2018-09-20T22:01:05.111Z,99928.00
2018-09-20T22:06:08.131Z,99910.00
2018-09-20T22:11:11.404Z,99910.00
2018-09-20T22:16:14.472Z,99909.00
2018-09-20T22:21:17.490Z,99905.00
2018-09-20T22:26:20.607Z,99899.00
2018-09-20T22:31:23.582Z,99891.00
2018-09-20T22:36:26.546Z,99887.00
2018-09-20T22:41:29.683Z,99880.00
2018-09-20T22:46:32.695Z,99875.00
2018-09-20T22:51:35.684Z,99875.00
2018-09-20T22:56:38.686Z,99868.00
2018-09-20T23:01:41.658Z,99862.00
2018-09-20T23:06:44.690Z,99861.00
2018-09-20T23:11:47.644Z,99857.00
2018-09-20T23:16:50.708Z,99858.00
2018-09-20T23:21:54.104Z,99864.00
2018-09-20T23:26:57.173Z,99855.00
2018-09-20T23:32:00.521Z,99858.00
2018-09-20T23:37:05.343Z,99857.00
2018-09-20T23:42:08.386Z,99855.00
2018-09-20T23:47:11.336Z,99841.00
2018-09-20T23:52:14.376Z,99832.00
2018-09-20T23:57:17.332Z,99832.00
